Time;durP1;ratioP1;P1;durP2;ratioP2;P2;SDS_P1;SDS_P2;PMS_P1;PMS_P2;Temp;Humidity;BMP_temperature;BMP_pressure;BME280_temperature;BME280_humidity;BME280_pressure;Samples;Min_cycle;Max_cycle;Signal;HPM_P1;HPM_P2
2023/11/03 00:01:53;;;;;;;2.00;0.80;;;;;;;21.01;44.84;97537.06;5027050;28;20068;-79
2023/11/03 00:04:19;;;;;;;1.10;0.57;;;;;;;20.90;44.90;97508.22;5023956;28;20065;-77
2023/11/03 00:06:44;;;;;;;0.68;0.50;;;;;;;20.99;45.07;97520.63;5029994;28;20048;-79
2023/11/03 00:09:14;;;;;;;0.95;0.68;;;;;;;20.95;45.01;97511.66;5025408;28;20021;-79
2023/11/03 00:11:41;;;;;;;1.55;0.93;;;;;;;20.97;44.99;97520.13;5023944;28;20045;-78
2023/11/03 00:14:07;;;;;;;2.00;1.08;;;;;;;20.85;44.98;97500.31;5024316;28;20048;-78
2023/11/03 00:16:32;;;;;;;1.15;0.55;;;;;;;20.96;45.08;97517.72;4992856;28;20048;-79
2023/11/03 00:19:00;;;;;;;0.93;0.55;;;;;;;20.96;44.94;97526.47;5020817;28;20052;-79
2023/11/03 00:21:29;;;;;;;0.85;0.70;;;;;;;20.93;45.02;97534.16;5028665;28;20046;-79
2023/11/03 00:23:55;;;;;;;3.22;0.70;;;;;;;20.93;44.97;97528.84;5018004;28;20128;-79
2023/11/03 00:26:20;;;;;;;1.23;0.63;;;;;;;20.84;44.96;97512.75;5020965;28;20484;-78
2023/11/03 00:28:49;;;;;;;1.50;0.65;;;;;;;20.93;44.79;97537.56;5027583;28;20025;-78
2023/11/03 00:31:15;;;;;;;0.93;0.80;;;;;;;20.89;44.98;97519.88;5020600;28;20038;-79
2023/11/03 00:33:41;;;;;;;1.48;0.60;;;;;;;20.86;45.01;97523.06;5042661;28;20037;-78
2023/11/03 00:36:07;;;;;;;0.73;0.70;;;;;;;20.86;44.99;97517.75;5030112;28;20051;-78
2023/11/03 00:38:32;;;;;;;1.85;0.90;;;;;;;20.85;44.90;97513.53;5038220;28;20044;-78
2023/11/03 00:40:58;;;;;;;1.27;0.60;;;;;;;20.80;44.88;97499.22;5020257;28;20050;-78
2023/11/03 00:43:25;;;;;;;1.88;0.80;;;;;;;20.83;44.94;97513.00;5026623;28;20025;-78
2023/11/03 00:45:50;;;;;;;0.60;0.52;;;;;;;20.80;44.88;97507.16;4994980;28;20034;-78
2023/11/03 00:48:17;;;;;;;0.63;0.50;;;;;;;20.86;44.86;97526.50;5025127;28;20529;-78
2023/11/03 00:50:43;;;;;;;0.93;0.70;;;;;;;20.85;45.00;97521.47;5024986;28;20051;-78
2023/11/03 00:53:09;;;;;;;1.83;0.80;;;;;;;20.88;44.88;97539.44;5022511;28;20037;-79
2023/11/03 00:55:34;;;;;;;0.47;0.40;;;;;;;20.86;44.99;97538.91;5023873;28;20092;-79
2023/11/03 00:58:00;;;;;;;1.77;0.55;;;;;;;20.86;45.08;97552.13;5021645;28;20084;-78
2023/11/03 01:00:25;;;;;;;0.47;0.47;;;;;;;20.78;44.90;97529.66;5024527;28;20514;-78
2023/11/03 01:02:51;;;;;;;0.35;0.30;;;;;;;20.84;44.77;97549.75;5016490;28;20872;-79
2023/11/03 01:05:21;;;;;;;1.05;0.60;;;;;;;20.83;44.79;97552.69;5024028;28;20061;-78
2023/11/03 01:07:48;;;;;;;1.23;0.57;;;;;;;20.81;44.78;97545.78;5021305;28;20064;-77
2023/11/03 01:10:16;;;;;;;2.95;0.50;;;;;;;20.83;44.82;97560.63;5020115;28;20061;-80
2023/11/03 01:12:49;;;;;;;0.95;0.50;;;;;;;20.84;44.83;97554.25;5018423;28;20052;-78
2023/11/03 01:15:19;;;;;;;0.57;0.40;;;;;;;20.69;45.04;97529.41;5022743;28;20125;-78
2023/11/03 01:17:49;;;;;;;0.97;0.63;;;;;;;20.68;44.93;97533.09;5020012;28;20032;-78
2023/11/03 01:20:19;;;;;;;0.70;0.43;;;;;;;20.79;44.90;97549.75;5013872;28;21104;-78
2023/11/03 01:22:48;;;;;;;0.90;0.60;;;;;;;20.77;45.06;97552.66;5024485;28;20097;-78
2023/11/03 01:25:17;;;;;;;0.52;0.38;;;;;;;20.78;45.14;97558.75;5033792;28;20041;-78
2023/11/03 01:27:43;;;;;;;0.90;0.40;;;;;;;20.79;45.16;97553.19;5022407;28;20038;-77
2023/11/03 01:30:14;;;;;;;0.93;0.68;;;;;;;20.77;45.05;97554.50;5022202;28;20032;-78
2023/11/03 01:32:40;;;;;;;1.00;0.90;;;;;;;20.71;45.00;97543.16;5022050;28;20052;-79
2023/11/03 01:35:09;;;;;;;1.00;0.57;;;;;;;20.72;45.04;97536.78;5022005;28;20034;-79
2023/11/03 01:37:34;;;;;;;1.40;0.55;;;;;;;20.75;45.13;97546.06;5019642;28;20052;-78
2023/11/03 01:40:06;;;;;;;1.60;0.63;;;;;;;20.77;45.18;97541.28;5029470;28;20032;-79
2023/11/03 01:42:32;;;;;;;0.75;0.45;;;;;;;20.77;45.09;97536.00;5015855;28;20064;-78
2023/11/03 01:44:57;;;;;;;0.85;0.50;;;;;;;20.73;45.04;97538.38;5022025;28;20630;-79
2023/11/03 01:47:23;;;;;;;0.32;0.30;;;;;;;20.75;44.98;97548.69;5022380;28;20038;-78
2023/11/03 01:49:49;;;;;;;0.68;0.57;;;;;;;20.72;45.08;97551.88;5019868;28;20033;-79
2023/11/03 01:52:15;;;;;;;0.65;0.50;;;;;;;20.73;45.09;97553.47;5030384;28;20033;-78
2023/11/03 01:54:42;;;;;;;1.15;0.68;;;;;;;20.70;45.00;97551.34;5019806;28;20038;-78
2023/11/03 01:57:08;;;;;;;0.73;0.43;;;;;;;20.71;45.11;97545.00;5027275;28;20025;-79
2023/11/03 01:59:35;;;;;;;1.05;0.63;;;;;;;20.70;45.06;97557.41;5025233;28;20060;-79
2023/11/03 02:02:00;;;;;;;0.85;0.50;;;;;;;20.66;45.10;97553.72;5024667;28;20590;-78
2023/11/03 02:04:26;;;;;;;0.63;0.55;;;;;;;20.71;45.06;97566.94;5019031;28;20033;-78
2023/11/03 02:06:51;;;;;;;0.52;0.50;;;;;;;20.67;45.17;97557.97;5023302;28;20081;-79
2023/11/03 02:09:17;;;;;;;1.00;0.70;;;;;;;20.69;45.38;97562.97;5022744;28;20037;-78
2023/11/03 02:11:43;;;;;;;1.77;0.70;;;;;;;20.63;45.11;97559.50;5019278;28;20113;-78
2023/11/03 02:14:10;;;;;;;0.43;0.32;;;;;;;20.69;44.88;97571.69;5019510;28;20053;-78
2023/11/03 02:16:36;;;;;;;1.13;0.50;;;;;;;20.63;45.23;97564.81;5018531;28;20040;-78
2023/11/03 02:19:05;;;;;;;0.60;0.50;;;;;;;20.60;45.00;97564.53;5025101;28;20165;-78
2023/11/03 02:21:37;;;;;;;0.50;0.50;;;;;;;20.60;45.31;97565.34;5022276;28;20041;-78
2023/11/03 02:24:06;;;;;;;0.40;0.40;;;;;;;20.66;45.04;97576.72;5019464;28;20657;-79
2023/11/03 02:26:32;;;;;;;0.57;0.50;;;;;;;20.58;45.04;97564.00;5025455;28;20042;-78
2023/11/03 02:28:57;;;;;;;1.77;0.45;;;;;;;20.45;45.19;97552.09;5021229;28;20103;-78
2023/11/03 02:31:24;;;;;;;0.45;0.40;;;;;;;20.57;45.19;97568.50;5036606;28;20041;-78
2023/11/03 02:33:50;;;;;;;0.38;0.38;;;;;;;20.66;45.25;97587.31;5029727;28;20633;-78
2023/11/03 02:36:17;;;;;;;1.27;0.50;;;;;;;20.49;45.26;97559.25;5021915;28;20030;-78
2023/11/03 02:38:43;;;;;;;0.43;0.30;;;;;;;20.63;45.04;97579.88;5026014;28;20032;-78
2023/11/03 02:41:08;;;;;;;1.02;0.40;;;;;;;20.62;45.17;97578.28;5027137;28;20040;-78
2023/11/03 02:43:34;;;;;;;0.50;0.50;;;;;;;20.60;45.09;97570.63;5026255;28;20044;-78
2023/11/03 02:45:59;;;;;;;1.27;0.77;;;;;;;20.58;45.24;97578.03;5026940;28;20843;-78
2023/11/03 02:48:25;;;;;;;1.27;0.88;;;;;;;20.62;45.23;97565.06;5022607;28;20041;-78
2023/11/03 02:50:51;;;;;;;1.00;0.60;;;;;;;20.64;45.16;97581.47;5023927;28;20037;-78
2023/11/03 02:53:18;;;;;;;0.90;0.52;;;;;;;20.62;45.16;97584.38;5018227;28;20789;-78
2023/11/03 02:55:44;;;;;;;0.65;0.50;;;;;;;20.60;45.09;97581.19;5028112;28;20096;-78
2023/11/03 02:58:09;;;;;;;0.65;0.50;;;;;;;20.62;45.22;97586.22;5028048;28;20046;-78
2023/11/03 03:00:38;;;;;;;0.85;0.50;;;;;;;20.59;44.87;97587.53;5026277;28;20041;-78
2023/11/03 03:03:05;;;;;;;0.88;0.65;;;;;;;20.61;45.08;97584.63;5023235;28;20064;-78
2023/11/03 03:05:31;;;;;;;0.68;0.47;;;;;;;20.49;45.14;97567.19;5061062;28;20505;-79
2023/11/03 03:07:56;;;;;;;0.40;0.40;;;;;;;20.59;45.08;97590.19;5022848;28;20045;-77
2023/11/03 03:10:22;;;;;;;0.88;0.50;;;;;;;20.57;45.20;97580.94;5016463;28;20048;-78
2023/11/03 03:12:48;;;;;;;0.80;0.63;;;;;;;20.54;45.30;97576.19;5027069;28;20377;-78
2023/11/03 03:15:14;;;;;;;1.13;0.40;;;;;;;20.57;45.18;97592.31;5019385;28;20068;-78
2023/11/03 03:17:39;;;;;;;0.50;0.50;;;;;;;20.51;45.23;97580.13;5025221;28;20044;-78
2023/11/03 03:20:06;;;;;;;1.45;0.70;;;;;;;20.52;45.21;97587.81;5016758;28;20048;-78
2023/11/03 03:22:32;;;;;;;0.93;0.63;;;;;;;20.46;45.25;97580.91;5024415;28;20041;-78
2023/11/03 03:24:58;;;;;;;0.60;0.50;;;;;;;20.44;45.20;97580.38;5038559;28;20058;-78
2023/11/03 03:27:24;;;;;;;0.95;0.77;;;;;;;20.50;45.09;97587.28;5023468;28;20043;-78
2023/11/03 03:29:49;;;;;;;0.68;0.57;;;;;;;20.56;45.25;97601.28;5019472;28;20423;-78
2023/11/03 03:32:15;;;;;;;0.80;0.52;;;;;;;20.55;45.22;97602.34;5027721;28;20487;-78
2023/11/03 03:34:40;;;;;;;0.68;0.57;;;;;;;20.57;45.04;97602.06;5025463;28;20037;-78
2023/11/03 03:37:06;;;;;;;0.93;0.50;;;;;;;20.53;45.21;97607.09;5026678;28;20041;-78
2023/11/03 03:39:31;;;;;;;0.50;0.50;;;;;;;20.44;45.30;97592.78;5021958;28;20049;-79
2023/11/03 03:41:57;;;;;;;0.57;0.40;;;;;;;20.52;45.27;97594.94;5030902;28;20045;-79
2023/11/03 03:44:22;;;;;;;0.38;0.30;;;;;;;20.50;45.28;97594.41;5019948;28;20041;-78
2023/11/03 03:46:48;;;;;;;0.50;0.50;;;;;;;20.53;45.18;97609.75;5026663;28;20045;-79
2023/11/03 03:49:14;;;;;;;0.52;0.43;;;;;;;20.52;45.20;97608.94;5005823;28;20038;-78
2023/11/03 03:51:39;;;;;;;0.60;0.60;;;;;;;20.52;45.32;97616.09;5026331;28;20037;-78
2023/11/03 03:54:05;;;;;;;0.73;0.68;;;;;;;20.52;45.30;97602.88;5028206;28;20812;-79
2023/11/03 03:56:31;;;;;;;0.38;0.35;;;;;;;20.51;45.21;97601.28;5031710;28;20040;-78
2023/11/03 03:58:57;;;;;;;1.30;0.55;;;;;;;20.50;45.32;97603.13;5026995;28;20051;-78
2023/11/03 04:01:23;;;;;;;0.52;0.50;;;;;;;20.51;45.35;97611.84;5026987;28;20049;-78
2023/11/03 04:03:49;;;;;;;0.70;0.68;;;;;;;20.49;45.17;97621.91;5032013;28;20055;-78
2023/11/03 04:06:14;;;;;;;0.45;0.45;;;;;;;20.48;45.37;97609.75;5035268;28;20075;-78
2023/11/03 04:08:40;;;;;;;1.92;0.73;;;;;;;20.47;45.37;97608.94;5015063;28;20114;-78
2023/11/03 04:11:05;;;;;;;1.77;0.73;;;;;;;20.48;45.27;97601.81;5022197;28;20124;-78
2023/11/03 04:13:32;;;;;;;0.50;0.50;;;;;;;20.42;45.41;97603.63;5025252;28;20048;-78
2023/11/03 04:15:57;;;;;;;0.45;0.45;;;;;;;20.46;45.24;97612.63;5025512;28;20045;-78
2023/11/03 04:18:23;;;;;;;0.60;0.50;;;;;;;20.38;45.28;97594.59;5022248;28;20054;-78
2023/11/03 04:20:49;;;;;;;0.38;0.38;;;;;;;20.45;45.10;97600.47;5026777;28;20053;-78
2023/11/03 04:23:14;;;;;;;2.20;0.65;;;;;;;20.42;45.38;97600.19;5023932;28;20030;-78
2023/11/03 04:25:40;;;;;;;1.15;0.65;;;;;;;20.29;45.43;97577.69;5025219;28;20029;-78
2023/11/03 04:28:07;;;;;;;1.13;0.80;;;;;;;20.42;45.26;97605.47;5022152;28;20666;-78
2023/11/03 04:30:36;;;;;;;0.40;0.40;;;;;;;20.44;45.51;97613.94;5023280;28;20456;-78
2023/11/03 04:33:02;;;;;;;0.77;0.35;;;;;;;20.45;45.31;97621.59;5024181;28;20037;-77
2023/11/03 04:35:28;;;;;;;0.50;0.50;;;;;;;20.46;45.17;97606.53;5025492;28;20048;-78
2023/11/03 04:37:54;;;;;;;1.90;0.98;;;;;;;20.25;45.09;97581.88;5027794;28;20056;-78
2023/11/03 04:40:21;;;;;;;0.40;0.40;;;;;;;20.27;45.23;97592.19;5030467;28;20526;-78
2023/11/03 04:42:50;;;;;;;0.73;0.68;;;;;;;20.46;45.28;97612.63;5025869;28;20048;-78
2023/11/03 04:45:19;;;;;;;0.57;0.50;;;;;;;20.40;45.05;97608.34;5026922;28;20561;-78
2023/11/03 04:47:45;;;;;;;0.68;0.68;;;;;;;20.48;45.60;97628.25;5030017;28;20057;-78
2023/11/03 04:50:11;;;;;;;0.85;0.60;;;;;;;20.46;45.25;97631.13;5025525;28;20040;-78
2023/11/03 04:52:37;;;;;;;1.05;0.60;;;;;;;20.46;45.10;97633.75;5023484;28;20591;-78
2023/11/03 04:55:08;;;;;;;0.70;0.40;;;;;;;20.46;45.19;97641.69;5024773;28;20509;-78
2023/11/03 04:57:34;;;;;;;1.05;0.43;;;;;;;20.47;45.32;97638.03;5016507;28;20589;-78
2023/11/03 05:00:00;;;;;;;0.50;0.40;;;;;;;20.48;45.22;97641.47;5028956;28;20077;-78
2023/11/03 05:02:28;;;;;;;0.60;0.60;;;;;;;20.47;45.26;97638.03;5027552;28;20047;-78
2023/11/03 05:04:54;;;;;;;1.75;0.50;;;;;;;20.46;45.24;97639.03;5031773;28;20556;-78
2023/11/03 05:07:20;;;;;;;1.38;0.60;;;;;;;20.45;45.27;97649.88;5020959;28;20037;-78
2023/11/03 05:09:47;;;;;;;0.52;0.50;;;;;;;20.38;45.12;97636.91;5031688;28;20124;-78
2023/11/03 05:12:12;;;;;;;0.60;0.60;;;;;;;20.47;45.32;97658.38;5016921;28;20064;-78
2023/11/03 05:14:38;;;;;;;0.70;0.50;;;;;;;20.39;45.13;97641.13;5037104;28;20044;-78
2023/11/03 05:17:07;;;;;;;0.52;0.50;;;;;;;20.43;45.32;97652.00;5025819;28;20108;-78
2023/11/03 05:19:35;;;;;;;0.93;0.70;;;;;;;20.48;45.26;97654.69;5025164;28;20053;-78
2023/11/03 05:22:01;;;;;;;0.70;0.60;;;;;;;20.39;45.39;97640.31;5021713;28;20049;-78
2023/11/03 05:24:27;;;;;;;0.65;0.63;;;;;;;20.49;45.00;97658.91;5023996;28;20041;-79
2023/11/03 05:26:53;;;;;;;0.50;0.50;;;;;;;20.47;45.21;97661.81;5015831;28;20053;-78
2023/11/03 05:29:22;;;;;;;0.30;0.30;;;;;;;20.47;45.27;97661.00;5021563;28;20033;-78
2023/11/03 05:31:50;;;;;;;0.68;0.55;;;;;;;20.36;45.19;97640.84;5028543;28;20044;-77
2023/11/03 05:34:16;;;;;;;0.50;0.50;;;;;;;20.46;45.31;97664.69;5026839;28;20055;-78
2023/11/03 05:36:42;;;;;;;0.47;0.47;;;;;;;20.47;45.10;97671.59;5024624;28;20048;-78
2023/11/03 05:39:10;;;;;;;1.23;0.77;;;;;;;20.47;45.25;97668.94;5019973;28;20048;-78
2023/11/03 05:41:36;;;;;;;0.43;0.43;;;;;;;20.42;45.32;97659.13;5030048;28;20099;-78
2023/11/03 05:44:02;;;;;;;0.52;0.40;;;;;;;20.46;45.38;97673.41;5024317;28;20503;-77
2023/11/03 05:46:28;;;;;;;0.80;0.77;;;;;;;20.46;45.15;97672.63;5020861;28;20543;-78
2023/11/03 05:48:53;;;;;;;0.93;0.50;;;;;;;20.46;45.16;97677.91;5022262;28;20053;-78
2023/11/03 05:51:21;;;;;;;1.00;0.70;;;;;;;20.40;45.31;97679.72;5021082;28;20048;-78
2023/11/03 05:53:51;;;;;;;0.40;0.40;;;;;;;20.39;45.22;97680.75;5025211;28;20041;-78
2023/11/03 05:56:16;;;;;;;1.50;0.73;;;;;;;20.41;45.39;97686.63;5025143;28;20051;-78
2023/11/03 05:58:42;;;;;;;1.65;0.75;;;;;;;20.40;45.37;97695.56;5024052;28;20486;-78
2023/11/03 06:01:08;;;;;;;0.73;0.60;;;;;;;20.40;45.23;97692.13;5028560;28;20036;-78
2023/11/03 06:03:34;;;;;;;0.70;0.70;;;;;;;20.45;45.31;97703.53;5025217;28;20052;-78
2023/11/03 06:06:00;;;;;;;0.68;0.40;;;;;;;20.44;45.31;97707.22;5022276;28;20403;-78
2023/11/03 06:08:26;;;;;;;0.60;0.60;;;;;;;20.47;45.32;97719.16;5018889;28;20037;-78
2023/11/03 06:10:52;;;;;;;1.50;0.70;;;;;;;20.47;45.18;97713.88;5027904;28;20044;-78
2023/11/03 06:13:18;;;;;;;0.70;0.70;;;;;;;20.48;45.39;97710.97;5028232;28;20041;-77
2023/11/03 06:15:43;;;;;;;0.60;0.60;;;;;;;20.41;45.30;97718.31;5018418;28;20041;-78
2023/11/03 06:18:09;;;;;;;1.48;0.57;;;;;;;20.47;45.31;97727.88;5030508;28;20133;-78
2023/11/03 06:20:35;;;;;;;0.80;0.60;;;;;;;20.44;45.38;97731.03;5020645;28;20046;-78
2023/11/03 06:23:01;;;;;;;0.38;0.38;;;;;;;20.27;45.25;97706.59;5025769;28;20041;-78
2023/11/03 06:25:27;;;;;;;0.90;0.60;;;;;;;20.38;45.22;97718.03;5028072;28;20043;-78
2023/11/03 06:27:53;;;;;;;1.23;0.80;;;;;;;20.49;45.40;97743.50;5026667;28;20716;-78
2023/11/03 06:30:18;;;;;;;0.60;0.60;;;;;;;20.36;45.33;97723.56;5021697;28;20033;-78
2023/11/03 06:32:44;;;;;;;0.50;0.50;;;;;;;20.49;45.28;97746.13;5020245;28;20037;-78
2023/11/03 06:35:09;;;;;;;1.38;0.70;;;;;;;20.41;45.37;97742.13;5020751;28;20065;-78
2023/11/03 06:37:35;;;;;;;0.82;0.55;;;;;;;20.47;45.34;97756.97;5019544;28;20069;-78
2023/11/03 06:40:01;;;;;;;0.60;0.60;;;;;;;20.25;45.29;97731.69;5030829;28;20041;-78
2023/11/03 06:42:26;;;;;;;1.25;1.10;;;;;;;20.46;45.38;97770.41;5019480;28;20045;-79
2023/11/03 06:44:52;;;;;;;0.80;0.57;;;;;;;20.44;45.48;97770.66;5034707;28;20072;-78
2023/11/03 06:47:17;;;;;;;0.40;0.40;;;;;;;20.48;45.36;97784.97;5022138;28;20045;-78
2023/11/03 06:49:46;;;;;;;0.80;0.55;;;;;;;20.47;45.34;97793.16;5023781;28;20042;-78
2023/11/03 06:52:12;;;;;;;1.05;0.65;;;;;;;20.44;45.40;97791.81;5024331;28;20045;-78
2023/11/03 06:54:37;;;;;;;1.10;0.68;;;;;;;20.39;45.50;97798.91;5032576;28;20039;-79
2023/11/03 06:57:05;;;;;;;0.70;0.70;;;;;;;20.37;45.45;97793.06;5028628;28;20053;-77
2023/11/03 06:59:33;;;;;;;0.57;0.57;;;;;;;20.46;45.54;97812.69;5021144;28;20075;-78
2023/11/03 07:01:58;;;;;;;0.80;0.60;;;;;;;20.39;45.40;97810.25;5024720;28;20053;-78
2023/11/03 07:04:24;;;;;;;0.70;0.70;;;;;;;20.47;45.45;97824.88;5019488;28;20030;-78
2023/11/03 07:06:50;;;;;;;0.95;0.73;;;;;;;20.41;45.43;97820.59;5025989;28;20509;-78
2023/11/03 07:09:16;;;;;;;0.50;0.50;;;;;;;20.49;45.30;97830.72;5023528;28;20041;-78
2023/11/03 07:11:42;;;;;;;0.73;0.70;;;;;;;20.44;45.21;97820.09;5018909;28;20037;-78
2023/11/03 07:14:07;;;;;;;0.38;0.38;;;;;;;20.63;45.11;97841.59;5022296;28;20108;-78
2023/11/03 07:16:33;;;;;;;0.40;0.40;;;;;;;20.79;44.97;97841.44;5019315;28;20045;-78
2023/11/03 07:18:59;;;;;;;0.57;0.52;;;;;;;21.35;43.88;97849.59;5031976;28;20101;-78
2023/11/03 07:21:25;;;;;;;0.38;0.38;;;;;;;22.27;42.26;97847.06;5029999;28;20490;-78
2023/11/03 07:23:51;;;;;;;0.50;0.35;;;;;;;22.23;41.97;97812.31;5020699;28;20049;-78
2023/11/03 07:26:16;;;;;;;1.10;0.52;;;;;;;22.33;42.49;97855.78;5035068;28;20052;-78
2023/11/03 07:28:45;;;;;;;0.65;0.60;;;;;;;21.94;42.33;97808.63;5025386;28;20038;-78
2023/11/03 07:31:11;;;;;;;0.52;0.50;;;;;;;22.01;42.79;97848.88;5018703;28;20068;-78
2023/11/03 07:33:41;;;;;;;1.75;0.60;;;;;;;21.82;43.40;97851.25;5025932;28;20037;-78
2023/11/03 07:36:11;;;;;;;0.47;0.47;;;;;;;21.62;43.57;97836.16;5030527;28;20061;-78
2023/11/03 07:38:37;;;;;;;0.50;0.50;;;;;;;21.56;43.78;97860.25;5026072;28;20033;-77
2023/11/03 07:41:03;;;;;;;1.75;0.90;;;;;;;21.41;44.26;97847.78;5028663;28;20049;-78
2023/11/03 07:43:30;;;;;;;0.90;0.50;;;;;;;21.40;44.45;97865.50;5023978;28;20101;-78
2023/11/03 07:45:55;;;;;;;1.60;0.45;;;;;;;21.37;44.65;97871.31;5025665;28;20128;-78
2023/11/03 07:48:23;;;;;;;0.50;0.50;;;;;;;21.33;44.58;97880.03;5022635;28;20184;-78
2023/11/03 07:50:49;;;;;;;0.73;0.40;;;;;;;21.02;44.90;97848.16;5025681;28;20033;-78
2023/11/03 07:53:15;;;;;;;1.65;0.57;;;;;;;21.21;44.84;97888.19;5020474;28;21549;-78
2023/11/03 07:55:40;;;;;;;1.02;0.47;;;;;;;21.24;44.83;97903.56;5025741;28;20041;-74
2023/11/03 07:58:06;;;;;;;0.60;0.57;;;;;;;21.24;44.90;97910.69;5024778;28;20806;-75
2023/11/03 08:00:32;;;;;;;0.40;0.40;;;;;;;21.22;44.95;97926.03;5039510;28;20045;-76
2023/11/03 08:02:59;;;;;;;0.55;0.55;;;;;;;21.15;44.87;97912.22;5031135;28;20123;-75
2023/11/03 08:05:25;;;;;;;0.55;0.40;;;;;;;21.17;45.09;97918.03;5017355;28;20053;-75
2023/11/03 08:07:51;;;;;;;1.35;0.45;;;;;;;21.15;44.99;97918.31;5027463;28;20045;-75
2023/11/03 08:10:16;;;;;;;0.65;0.50;;;;;;;21.15;45.01;97923.59;5020481;28;20114;-75
2023/11/03 08:12:42;;;;;;;0.85;0.60;;;;;;;21.12;44.83;97922.25;5023972;28;20048;-75
2023/11/03 08:15:08;;;;;;;0.80;0.80;;;;;;;21.13;45.00;97933.63;5024380;28;20037;-74
2023/11/03 08:17:35;;;;;;;0.90;0.55;;;;;;;20.99;44.83;97925.38;5021599;28;20056;-75
2023/11/03 08:20:03;;;;;;;1.75;0.85;;;;;;;20.99;44.83;97924.56;5028829;28;20063;-75
2023/11/03 08:22:29;;;;;;;0.50;0.50;;;;;;;21.03;45.01;97944.19;5019550;28;20033;-75
2023/11/03 08:24:56;;;;;;;0.95;0.40;;;;;;;21.07;45.00;97951.34;5027257;28;20110;-75
2023/11/03 08:27:22;;;;;;;0.65;0.55;;;;;;;21.08;45.02;97946.84;5023401;28;20056;-75
2023/11/03 08:29:49;;;;;;;1.73;0.70;;;;;;;21.06;45.16;97964.84;5024304;28;20360;-74
2023/11/03 08:32:16;;;;;;;0.50;0.40;;;;;;;20.98;44.99;97949.44;5019121;28;20843;-75
2023/11/03 08:34:41;;;;;;;0.70;0.60;;;;;;;21.01;44.91;97962.19;5020013;28;20610;-74
2023/11/03 08:37:07;;;;;;;0.57;0.50;;;;;;;21.04;45.01;97975.69;5029806;28;20120;-75
2023/11/03 08:39:33;;;;;;;0.60;0.52;;;;;;;21.03;45.19;97975.94;5008688;28;20044;-75
2023/11/03 08:42:02;;;;;;;0.73;0.50;;;;;;;21.03;45.01;97981.22;5024072;28;20497;-76
2023/11/03 08:44:28;;;;;;;1.75;1.30;;;;;;;21.03;44.86;97968.00;5024475;28;20522;-75
2023/11/03 08:46:54;;;;;;;0.95;0.60;;;;;;;21.03;45.02;97978.59;5040478;28;20679;-74
2023/11/03 08:49:20;;;;;;;1.10;0.80;;;;;;;21.02;44.83;97987.56;5024920;28;20103;-75
2023/11/03 08:51:45;;;;;;;1.05;0.57;;;;;;;21.02;44.93;97993.66;5025034;28;20045;-74
2023/11/03 08:54:11;;;;;;;1.85;0.68;;;;;;;21.00;44.81;98000.25;5025548;28;20110;-74
2023/11/03 08:56:38;;;;;;;0.65;0.60;;;;;;;20.99;44.98;97990.72;5023766;28;20041;-75
2023/11/03 08:59:04;;;;;;;1.23;0.85;;;;;;;20.98;44.84;98000.50;5022614;28;20045;-74
2023/11/03 09:01:30;;;;;;;0.90;0.82;;;;;;;20.99;44.83;97998.66;5019287;28;20102;-75
2023/11/03 09:03:55;;;;;;;1.92;0.77;;;;;;;20.99;45.12;98003.94;5029018;28;20721;-75
2023/11/03 09:06:21;;;;;;;1.42;0.73;;;;;;;20.99;44.74;97996.00;5021848;28;20041;-75
2023/11/03 09:08:46;;;;;;;0.90;0.60;;;;;;;20.96;45.08;97999.16;5016574;28;20861;-74
2023/11/03 09:11:12;;;;;;;0.80;0.75;;;;;;;20.94;44.81;97995.97;5021583;28;20037;-75
2023/11/03 09:13:51;;;;;;;2.95;1.20;;;;;;;20.98;44.70;98008.44;5040334;28;20043;-73
2023/11/03 09:16:19;;;;;;;0.88;0.70;;;;;;;20.94;45.01;98015.28;5020926;28;20032;-73
2023/11/03 09:18:44;;;;;;;1.80;0.75;;;;;;;20.91;44.85;98007.88;5023350;28;20045;-75
2023/11/03 09:21:10;;;;;;;1.65;0.80;;;;;;;20.97;44.99;98011.34;5018666;28;20045;-75
2023/11/03 09:23:36;;;;;;;1.20;0.75;;;;;;;20.98;44.77;98012.94;5013926;28;20480;-75
2023/11/03 09:26:03;;;;;;;2.05;1.10;;;;;;;20.97;44.68;98006.84;5018617;28;20037;-74
2023/11/03 09:28:29;;;;;;;1.65;0.95;;;;;;;20.99;44.96;98011.88;5025251;28;20487;-75
2023/11/03 09:30:55;;;;;;;1.38;0.70;;;;;;;20.91;44.89;98001.78;5019430;28;20049;-74
2023/11/03 09:33:20;;;;;;;0.82;0.80;;;;;;;20.99;44.88;98011.88;5022280;28;20044;-75
2023/11/03 09:35:46;;;;;;;1.48;0.88;;;;;;;21.05;44.68;98014.31;5019405;28;20076;-74
2023/11/03 09:38:16;;;;;;;1.17;1.00;;;;;;;21.00;44.50;97995.75;5019557;28;20179;-75
2023/11/03 09:40:42;;;;;;;;;;;;;;;21.15;44.38;98008.28;5022234;28;20040;-75
2023/11/03 09:43:08;;;;;;;1.35;0.77;;;;;;;21.13;44.62;98013.03;5018302;28;19921;-75
2023/11/03 09:45:36;;;;;;;0.65;0.60;;;;;;;21.13;44.65;98020.97;5019495;28;20056;-74
2023/11/03 09:48:03;;;;;;;2.78;1.20;;;;;;;21.16;44.62;98022.28;5019510;28;20030;-75
2023/11/03 09:50:29;;;;;;;2.17;1.00;;;;;;;21.13;44.74;98027.06;5022539;28;20044;-75
2023/11/03 09:52:59;;;;;;;1.02;0.85;;;;;;;21.09;44.76;98020.69;5020969;28;20514;-75
2023/11/03 09:55:27;;;;;;;0.93;0.90;;;;;;;21.13;44.60;98031.53;5019029;28;20559;-75
2023/11/03 09:57:59;;;;;;;2.90;1.17;;;;;;;21.06;44.71;98029.13;5016779;28;20073;-74
2023/11/03 10:00:26;;;;;;;1.98;0.93;;;;;;;21.14;44.85;98054.31;5020208;28;20029;-75
2023/11/03 10:02:51;;;;;;;2.03;0.65;;;;;;;21.11;44.66;98042.38;5028982;28;20060;-75
2023/11/03 10:05:18;;;;;;;1.33;1.00;;;;;;;21.10;44.56;98046.09;5020951;28;20029;-75
2023/11/03 10:08:00;;;;;;;1.58;0.80;;;;;;;21.10;44.69;98051.38;5016905;28;20046;-75
2023/11/03 10:10:28;;;;;;;1.15;0.82;;;;;;;21.11;44.53;98049.53;5016879;28;20135;-75
2023/11/03 10:12:53;;;;;;;1.80;1.15;;;;;;;21.11;44.54;98049.53;5014087;28;20040;-75
2023/11/03 10:15:19;;;;;;;2.17;1.25;;;;;;;21.11;44.75;98050.31;5017799;28;20037;-75
2023/11/03 10:17:45;;;;;;;1.08;0.98;;;;;;;21.13;44.47;98056.16;5023856;28;20044;-75
2023/11/03 10:20:12;;;;;;;1.45;0.90;;;;;;;21.06;44.62;98055.59;5021728;28;20782;-75
2023/11/03 10:22:42;;;;;;;1.98;1.30;;;;;;;21.11;44.69;98065.41;5021276;28;20049;-75
2023/11/03 10:25:08;;;;;;;1.67;1.20;;;;;;;21.13;44.67;98071.25;5022047;28;20112;-75
2023/11/03 10:27:37;;;;;;;1.10;0.98;;;;;;;21.13;44.83;98074.69;5021970;28;20094;-75
2023/11/03 10:30:06;;;;;;;1.17;1.08;;;;;;;21.13;44.65;98071.25;5011694;28;20046;-75
2023/11/03 10:32:33;;;;;;;3.03;1.50;;;;;;;21.15;44.88;98076.28;5011986;28;20075;-75
2023/11/03 10:35:04;;;;;;;2.40;1.10;;;;;;;21.13;44.65;98074.69;5012830;28;20052;-75
2023/11/03 10:37:31;;;;;;;2.00;1.02;;;;;;;21.19;44.48;98080.03;5025092;28;20914;-75
2023/11/03 10:39:57;;;;;;;2.97;1.13;;;;;;;21.16;44.56;98083.16;5019657;28;20400;-75
2023/11/03 10:42:25;;;;;;;1.63;1.23;;;;;;;21.12;44.60;98072.28;5022989;28;20040;-75
2023/11/03 10:44:58;;;;;;;1.13;1.00;;;;;;;21.18;44.40;98099.56;5020096;28;20038;-74
2023/11/03 10:47:27;;;;;;;1.33;1.23;;;;;;;21.01;44.70;98071.44;5019293;28;20042;-75
2023/11/03 10:50:09;;;;;;;2.53;1.63;;;;;;;21.22;44.24;98103.34;5025399;28;20042;-75
2023/11/03 10:53:02;;;;;;;2.38;1.33;;;;;;;21.21;44.31;98110.47;5023010;28;20128;-75
2023/11/03 10:55:34;;;;;;;1.13;0.90;;;;;;;21.17;44.42;98125.25;5019675;28;20157;-75
2023/11/03 10:58:02;;;;;;;2.55;1.25;;;;;;;21.18;44.75;98118.91;5020525;28;20118;-75
2023/11/03 11:00:36;;;;;;;2.10;1.27;;;;;;;21.15;44.47;98116.75;5031937;28;20063;-75
2023/11/03 11:03:15;;;;;;;1.98;1.08;;;;;;;21.20;44.52;98132.69;5021917;28;20871;-75
2023/11/03 11:05:51;;;;;;;1.65;1.17;;;;;;;21.21;44.65;98144.09;5019969;28;20044;-75
2023/11/03 11:08:18;;;;;;;1.77;1.20;;;;;;;21.16;44.61;98123.66;5023015;28;20033;-75
2023/11/03 11:10:45;;;;;;;1.40;1.15;;;;;;;21.13;44.72;98124.97;5025422;28;20048;-75
2023/11/03 11:13:22;;;;;;;1.40;1.17;;;;;;;21.08;44.43;98127.56;5037191;28;20495;-75
2023/11/03 11:15:56;;;;;;;2.83;1.25;;;;;;;21.20;44.44;98143.28;5022960;28;20503;-75
2023/11/03 11:18:28;;;;;;;1.88;1.20;;;;;;;21.03;44.47;98124.09;5020473;28;20064;-75
2023/11/03 11:21:00;;;;;;;1.50;1.30;;;;;;;21.11;44.41;98131.56;5023216;28;20084;-75
2023/11/03 11:23:33;;;;;;;1.92;1.17;;;;;;;21.21;44.32;98152.03;5019342;28;20185;-75
2023/11/03 11:26:00;;;;;;;2.35;1.25;;;;;;;20.96;44.32;98124.28;5022122;28;20063;-75
2023/11/03 11:28:38;;;;;;;1.75;1.33;;;;;;;21.20;44.45;98155.72;5024433;28;20504;-75
2023/11/03 11:31:36;;;;;;;1.40;1.27;;;;;;;21.15;44.43;98161.75;5022766;28;20503;-74
2023/11/03 11:34:17;;;;;;;2.67;1.45;;;;;;;21.17;44.35;98169.44;5019248;28;20053;-75